createdAt,value
2022-09-27T00:02:34.014Z,12.88
2022-09-27T00:05:22.743Z,12.87
2022-09-27T00:08:12.536Z,12.84
2022-09-27T00:11:02.213Z,12.73
2022-09-27T00:13:50.770Z,12.73
2022-09-27T00:16:40.666Z,12.69
2022-09-27T00:19:28.977Z,12.66
2022-09-27T00:22:17.388Z,12.63
2022-09-27T00:25:08.002Z,12.54
2022-09-27T00:27:56.339Z,12.47
2022-09-27T00:30:44.909Z,12.19
2022-09-27T00:33:33.290Z,11.98
2022-09-27T00:36:23.600Z,11.88
2022-09-27T00:39:12.130Z,11.93
2022-09-27T00:42:01.980Z,11.73
2022-09-27T00:45:13.044Z,11.73
2022-09-27T00:48:04.712Z,11.75
2022-09-27T00:50:59.370Z,11.76
2022-09-27T00:53:51.671Z,11.73
2022-09-27T00:56:41.234Z,11.55
2022-09-27T00:59:36.778Z,11.61
2022-09-27T01:02:25.207Z,11.63
2022-09-27T01:05:17.228Z,11.59
2022-09-27T01:08:05.636Z,11.77
2022-09-27T01:11:05.835Z,11.82
2022-09-27T01:14:10.140Z,11.87
2022-09-27T01:17:08.420Z,11.92
2022-09-27T01:20:31.406Z,11.97
2022-09-27T01:23:44.114Z,11.98
2022-09-27T01:27:03.115Z,11.69
2022-09-27T01:30:14.870Z,11.59
2022-09-27T01:33:16.367Z,11.75
2022-09-27T01:36:15.880Z,11.78
2022-09-27T01:39:16.204Z,11.80
2022-09-27T01:42:47.861Z,11.82
2022-09-27T01:45:45.143Z,11.88
2022-09-27T01:48:46.019Z,11.96
2022-09-27T01:51:45.946Z,11.88
2022-09-27T01:54:40.730Z,11.82
2022-09-27T01:57:50.372Z,11.66
2022-09-27T02:00:50.435Z,11.58
2022-09-27T02:03:47.683Z,11.49
2022-09-27T02:07:03.791Z,11.57
2022-09-27T02:09:57.989Z,11.59
2022-09-27T02:12:57.601Z,11.57
2022-09-27T02:15:58.057Z,11.55
2022-09-27T02:19:09.120Z,11.57
2022-09-27T02:22:08.355Z,11.62
2022-09-27T02:25:03.506Z,11.65
2022-09-27T02:28:00.666Z,11.66
2022-09-27T02:30:55.928Z,11.65
2022-09-27T02:33:51.529Z,11.59
2022-09-27T02:36:39.879Z,11.53
2022-09-27T02:39:29.081Z,11.49
2022-09-27T02:42:25.901Z,11.42
2022-09-27T02:45:16.831Z,11.31
2022-09-27T02:48:18.057Z,11.19
2022-09-27T02:51:20.962Z,11.15
2022-09-27T02:54:21.461Z,11.11
2022-09-27T02:57:38.091Z,11.08
2022-09-27T03:00:42.789Z,11.04
2022-09-27T03:03:54.745Z,10.98
2022-09-27T03:06:46.810Z,10.94
2022-09-27T03:09:44.467Z,10.90
2022-09-27T03:12:33.261Z,10.71
2022-09-27T03:15:21.985Z,10.63
2022-09-27T03:18:22.198Z,10.51
2022-09-27T03:21:47.052Z,10.54
2022-09-27T03:24:35.352Z,10.54
2022-09-27T03:27:23.907Z,10.60
2022-09-27T03:30:15.294Z,10.16
2022-09-27T03:33:03.551Z,9.94
2022-09-27T03:36:07.124Z,10.00
2022-09-27T03:38:56.805Z,9.67
2022-09-27T03:41:45.082Z,10.03
2022-09-27T03:44:33.490Z,10.10
2022-09-27T03:47:22.403Z,9.97
2022-09-27T03:50:12.851Z,9.90
2022-09-27T03:53:01.248Z,9.94
2022-09-27T03:55:51.165Z,9.99
2022-09-27T03:58:39.624Z,10.00
2022-09-27T04:01:28.992Z,10.05
2022-09-27T04:04:27.180Z,9.96
2022-09-27T04:07:16.231Z,10.02
2022-09-27T04:10:05.364Z,10.11
2022-09-27T04:12:56.794Z,10.04
2022-09-27T04:15:52.071Z,10.08
2022-09-27T04:18:59.676Z,10.10
2022-09-27T04:21:54.273Z,9.96
2022-09-27T04:24:42.772Z,10.08
2022-09-27T04:27:46.733Z,10.15
2022-09-27T04:30:37.190Z,10.19
2022-09-27T04:33:34.559Z,10.19
2022-09-27T04:36:39.315Z,10.11
2022-09-27T04:39:36.876Z,10.17
2022-09-27T04:42:28.617Z,10.14
2022-09-27T04:45:17.613Z,10.21
2022-09-27T04:48:07.345Z,10.25
2022-09-27T04:50:59.420Z,10.17
2022-09-27T04:53:48.180Z,10.12
2022-09-27T04:56:36.576Z,10.10
2022-09-27T04:59:26.706Z,10.13
2022-09-27T05:02:15.094Z,10.19
2022-09-27T05:05:22.403Z,10.19
2022-09-27T05:08:11.990Z,10.15
2022-09-27T05:11:18.782Z,10.17
2022-09-27T05:17:37.243Z,10.20
2022-09-27T05:20:59.588Z,10.19
2022-09-27T05:23:57.767Z,10.22
2022-09-27T05:26:47.019Z,10.23
2022-09-27T05:29:36.220Z,10.28
2022-09-27T05:32:30.382Z,10.32
2022-09-27T05:35:45.489Z,10.41
2022-09-27T05:38:37.079Z,10.35
2022-09-27T05:41:26.535Z,10.57
2022-09-27T05:44:15.749Z,10.54
2022-09-27T05:47:11.839Z,10.66
2022-09-27T05:50:00.187Z,10.67
2022-09-27T05:52:49.264Z,10.76
2022-09-27T05:55:40.711Z,10.90
2022-09-27T05:58:29.045Z,10.62
2022-09-27T06:01:31.299Z,10.92
2022-09-27T06:04:38.354Z,10.94
2022-09-27T06:08:00.953Z,11.08
2022-09-27T06:11:04.410Z,11.13
2022-09-27T06:13:53.374Z,11.26
2022-09-27T06:16:41.887Z,11.15
2022-09-27T06:19:30.502Z,11.26
2022-09-27T06:22:19.628Z,11.36
2022-09-27T06:25:17.517Z,11.64
2022-09-27T06:28:30.327Z,11.82
2022-09-27T06:31:19.452Z,11.81
2022-09-27T06:34:23.100Z,11.81
2022-09-27T06:37:12.603Z,11.73
2022-09-27T06:40:02.386Z,12.12
2022-09-27T06:43:11.144Z,12.23
2022-09-27T06:46:21.056Z,12.27
2022-09-27T06:49:20.621Z,12.29
2022-09-27T06:52:10.710Z,12.38
2022-09-27T06:54:59.204Z,12.49
2022-09-27T06:58:05.008Z,12.71
2022-09-27T07:00:54.733Z,12.96
2022-09-27T07:04:07.768Z,12.99
2022-09-27T07:07:14.455Z,13.04
2022-09-27T07:10:10.050Z,13.28
2022-09-27T07:13:05.531Z,13.25
2022-09-27T07:15:54.689Z,13.41
2022-09-27T07:18:43.777Z,13.62
2022-09-27T07:21:33.687Z,13.81
2022-09-27T07:24:22.154Z,14.00
2022-09-27T07:27:11.166Z,14.16
2022-09-27T07:29:59.627Z,14.35
2022-09-27T07:32:48.049Z,14.33
2022-09-27T07:35:40.141Z,14.58
2022-09-27T07:38:30.096Z,14.59
2022-09-27T07:41:18.560Z,14.80
2022-09-27T07:44:08.252Z,14.87
2022-09-27T07:47:04.230Z,14.98
2022-09-27T07:50:12.545Z,14.90
2022-09-27T07:53:12.919Z,15.04
2022-09-27T07:56:17.724Z,15.34
2022-09-27T07:59:06.306Z,15.51
2022-09-27T08:01:56.483Z,15.73
2022-09-27T08:04:47.138Z,15.69
2022-09-27T08:07:35.562Z,15.95
2022-09-27T08:10:25.378Z,16.11
2022-09-27T08:13:20.394Z,16.20
2022-09-27T08:16:11.274Z,16.38
2022-09-27T08:19:19.513Z,16.31
2022-09-27T08:22:23.728Z,16.55
2022-09-27T08:25:18.210Z,16.61
2022-09-27T08:28:26.370Z,16.85
2022-09-27T08:31:40.575Z,16.85
2022-09-27T08:34:29.626Z,17.05
2022-09-27T08:37:18.058Z,17.18
2022-09-27T08:40:07.648Z,17.28
2022-09-27T08:43:05.740Z,17.41
2022-09-27T08:46:09.273Z,17.28
2022-09-27T08:49:05.713Z,17.49
2022-09-27T08:51:56.123Z,17.53
2022-09-27T08:54:45.501Z,17.69
2022-09-27T08:57:33.949Z,17.88
2022-09-27T09:00:23.520Z,18.01
2022-09-27T09:03:20.269Z,17.96
2022-09-27T09:06:18.199Z,18.05
2022-09-27T09:09:17.330Z,18.06
2022-09-27T09:12:48.501Z,18.14
2022-09-27T09:15:56.665Z,18.32
2022-09-27T09:19:09.084Z,18.47
2022-09-27T09:22:20.217Z,18.57
2022-09-27T09:25:24.852Z,18.47
2022-09-27T09:28:30.313Z,18.45
2022-09-27T09:31:29.810Z,18.61
2022-09-27T09:34:23.306Z,18.78
2022-09-27T09:37:18.283Z,18.53
2022-09-27T09:40:15.784Z,18.95
2022-09-27T09:43:10.132Z,18.92
2022-09-27T09:46:04.232Z,18.79
2022-09-27T09:48:59.593Z,18.82
2022-09-27T09:51:56.024Z,18.95
2022-09-27T09:54:50.545Z,19.08
2022-09-27T09:57:44.794Z,19.12
2022-09-27T10:00:43.200Z,19.45
2022-09-27T10:03:31.560Z,19.55
2022-09-27T10:06:20.669Z,19.57
2022-09-27T10:09:13.964Z,19.67
2022-09-27T10:12:07.039Z,19.76
2022-09-27T10:15:00.385Z,19.84
2022-09-27T10:17:51.719Z,19.89
2022-09-27T10:20:43.440Z,19.66
2022-09-27T10:23:33.329Z,19.69
2022-09-27T10:26:26.123Z,19.73
2022-09-27T10:29:37.242Z,19.77
2022-09-27T10:32:33.290Z,19.67
2022-09-27T10:35:43.644Z,19.73
2022-09-27T10:38:37.631Z,19.85
2022-09-27T10:41:44.172Z,20.08
2022-09-27T10:44:39.451Z,19.90
2022-09-27T10:47:41.090Z,20.21
2022-09-27T10:50:59.310Z,20.28
2022-09-27T10:54:01.122Z,20.46
2022-09-27T10:57:05.005Z,20.79
2022-09-27T10:59:56.622Z,20.88
2022-09-27T11:02:45.080Z,20.85
2022-09-27T11:05:38.359Z,20.82
2022-09-27T11:08:32.712Z,21.12
2022-09-27T11:11:32.014Z,21.51
2022-09-27T11:14:24.357Z,21.75
2022-09-27T11:17:20.342Z,21.94
2022-09-27T11:20:20.942Z,22.05
2022-09-27T11:23:32.995Z,22.29
2022-09-27T11:26:38.418Z,22.32
2022-09-27T11:29:41.183Z,22.48
2022-09-27T11:33:21.446Z,22.86
2022-09-27T11:36:19.874Z,22.76
2022-09-27T11:39:19.409Z,22.86
2022-09-27T11:42:28.631Z,22.99
2022-09-27T11:48:52.992Z,23.43
2022-09-27T11:52:00.261Z,23.54
2022-09-27T11:55:11.594Z,23.76
2022-09-27T11:58:05.828Z,23.69
2022-09-27T12:01:13.659Z,23.71
2022-09-27T12:04:22.595Z,23.87
2022-09-27T12:07:18.885Z,24.29
2022-09-27T12:10:14.467Z,24.43
2022-09-27T12:13:04.346Z,24.63
2022-09-27T12:15:53.576Z,24.30
2022-09-27T12:18:51.313Z,24.69
2022-09-27T12:22:06.154Z,24.81
2022-09-27T12:24:58.987Z,25.10
2022-09-27T12:28:02.336Z,25.14
2022-09-27T12:31:17.254Z,25.42
2022-09-27T12:34:19.534Z,25.51
2022-09-27T12:37:15.543Z,25.44
2022-09-27T12:40:09.851Z,24.98
2022-09-27T12:43:07.165Z,25.18
2022-09-27T12:46:24.655Z,25.37
2022-09-27T12:49:25.520Z,25.31
2022-09-27T12:52:23.533Z,25.63
2022-09-27T12:55:31.900Z,25.67
2022-09-27T12:58:50.473Z,25.42
2022-09-27T13:01:54.005Z,25.72
2022-09-27T13:05:00.491Z,25.12
2022-09-27T13:07:59.273Z,25.55
2022-09-27T13:10:58.452Z,25.67
2022-09-27T13:13:58.103Z,25.94
2022-09-27T13:16:49.555Z,25.38
2022-09-27T13:19:44.216Z,25.56
2022-09-27T13:22:41.697Z,25.52
2022-09-27T13:25:53.033Z,25.69
2022-09-27T13:29:24.104Z,25.73
2022-09-27T13:32:22.680Z,25.57
2022-09-27T13:35:31.401Z,25.67
2022-09-27T13:38:27.675Z,25.68
2022-09-27T13:41:18.387Z,25.43
2022-09-27T13:44:23.117Z,25.41
2022-09-27T13:47:32.990Z,25.02
2022-09-27T13:50:29.033Z,25.06
2022-09-27T13:53:30.347Z,25.04
2022-09-27T13:56:54.384Z,25.17
2022-09-27T13:59:52.358Z,24.82
2022-09-27T14:03:03.689Z,24.74
2022-09-27T14:05:58.186Z,24.59
2022-09-27T14:08:50.415Z,24.45
2022-09-27T14:11:43.488Z,24.17
2022-09-27T14:14:37.639Z,24.25
2022-09-27T14:17:26.906Z,24.25
2022-09-27T14:20:34.566Z,24.14
2022-09-27T14:23:26.960Z,24.01
2022-09-27T14:26:24.574Z,23.60
2022-09-27T14:29:17.595Z,22.85
2022-09-27T14:32:11.417Z,22.89
2022-09-27T14:35:27.928Z,22.43
2022-09-27T14:38:36.993Z,22.55
2022-09-27T14:41:28.971Z,22.38
2022-09-27T14:44:23.541Z,22.35
2022-09-27T14:47:21.345Z,21.67
2022-09-27T14:50:20.835Z,21.99
2022-09-27T14:53:23.560Z,22.14
2022-09-27T14:56:18.137Z,22.14
2022-09-27T14:59:14.707Z,22.13
2022-09-27T15:02:10.883Z,22.13
2022-09-27T15:05:00.759Z,22.04
2022-09-27T15:07:49.760Z,21.67
2022-09-27T15:10:39.021Z,21.49
2022-09-27T15:13:28.809Z,21.45
2022-09-27T15:16:21.815Z,21.34
2022-09-27T15:19:17.525Z,21.11
2022-09-27T15:22:34.829Z,21.13
2022-09-27T15:25:32.482Z,21.02
2022-09-27T15:28:21.076Z,20.95
2022-09-27T15:31:09.677Z,20.72
2022-09-27T15:33:59.242Z,18.96
2022-09-27T15:36:57.035Z,16.00
2022-09-27T15:39:46.753Z,15.08
2022-09-27T15:42:56.432Z,14.60
2022-09-27T15:45:51.061Z,14.62
2022-09-27T15:48:39.354Z,14.50
2022-09-27T15:51:41.473Z,13.80
2022-09-27T15:54:33.239Z,14.03
2022-09-27T15:57:22.957Z,13.69
2022-09-27T16:00:16.965Z,13.03
2022-09-27T16:03:05.522Z,12.88
2022-09-27T16:05:56.177Z,13.02
2022-09-27T16:08:45.346Z,13.12
2022-09-27T16:11:33.701Z,12.97
2022-09-27T16:14:23.526Z,12.59
2022-09-27T16:17:12.222Z,12.45
2022-09-27T16:20:00.507Z,12.55
2022-09-27T16:22:48.877Z,12.37
2022-09-27T16:25:37.411Z,12.41
2022-09-27T16:28:25.938Z,12.73
2022-09-27T16:31:18.447Z,12.70
2022-09-27T16:34:06.947Z,11.99
2022-09-27T16:36:55.357Z,12.31
2022-09-27T16:39:43.705Z,12.15
2022-09-27T16:42:32.212Z,12.01
2022-09-27T16:45:20.526Z,12.07
2022-09-27T16:48:10.292Z,11.96
2022-09-27T16:51:22.489Z,11.77
2022-09-27T16:54:10.957Z,11.76
2022-09-27T16:57:00.601Z,12.12
2022-09-27T16:59:49.062Z,12.20
2022-09-27T17:02:37.615Z,12.21
2022-09-27T17:05:27.712Z,12.26
2022-09-27T17:08:16.171Z,12.51
2022-09-27T17:11:04.606Z,12.42
2022-09-27T17:13:56.689Z,11.77
2022-09-27T17:16:45.624Z,12.50
2022-09-27T17:19:33.982Z,12.34
2022-09-27T17:22:23.778Z,12.26
2022-09-27T17:25:12.312Z,12.44
2022-09-27T17:28:01.128Z,12.35
2022-09-27T17:30:49.707Z,12.05
2022-09-27T17:33:42.101Z,12.07
2022-09-27T17:36:34.063Z,12.38
2022-09-27T17:39:24.028Z,12.78
2022-09-27T17:42:12.743Z,12.82
2022-09-27T17:45:01.241Z,12.66
2022-09-27T17:48:09.578Z,12.69
2022-09-27T17:51:01.339Z,12.64
2022-09-27T17:53:50.189Z,13.03
2022-09-27T17:56:40.809Z,12.72
2022-09-27T17:59:29.312Z,12.67
2022-09-27T18:02:18.368Z,12.58
2022-09-27T18:05:07.573Z,12.62
2022-09-27T18:07:56.168Z,12.57
2022-09-27T18:10:44.624Z,12.54
2022-09-27T18:13:38.012Z,12.99
2022-09-27T18:16:29.933Z,12.92
2022-09-27T18:19:18.645Z,12.48
2022-09-27T18:22:07.417Z,12.49
2022-09-27T18:24:56.024Z,12.49
2022-09-27T18:27:44.988Z,12.78
2022-09-27T18:30:35.970Z,12.16
2022-09-27T18:33:24.914Z,12.67
2022-09-27T18:36:15.470Z,12.51
2022-09-27T18:39:05.984Z,12.40
2022-09-27T18:41:55.889Z,12.30
2022-09-27T18:44:44.321Z,12.34
2022-09-27T18:47:34.254Z,12.32
2022-09-27T18:50:22.748Z,12.06
2022-09-27T18:53:11.250Z,12.20
2022-09-27T18:56:04.226Z,12.29
2022-09-27T18:58:53.215Z,11.85
2022-09-27T19:01:45.585Z,12.06
2022-09-27T19:04:35.957Z,12.31
2022-09-27T19:07:24.570Z,12.14
2022-09-27T19:10:13.172Z,12.20
2022-09-27T19:13:01.801Z,12.57
2022-09-27T19:15:56.251Z,12.62
2022-09-27T19:18:45.071Z,12.89
2022-09-27T19:21:34.854Z,12.86
2022-09-27T19:24:23.289Z,12.79
2022-09-27T19:27:11.848Z,12.84
2022-09-27T19:30:00.536Z,13.11
2022-09-27T19:32:49.115Z,13.61
2022-09-27T19:35:37.572Z,13.20
2022-09-27T19:38:27.282Z,12.96
2022-09-27T19:41:17.183Z,13.49
2022-09-27T19:44:06.915Z,13.47
2022-09-27T19:46:55.394Z,13.70
2022-09-27T19:49:43.777Z,13.44
2022-09-27T19:52:32.165Z,13.80
2022-09-27T19:55:21.900Z,13.74
2022-09-27T19:58:10.317Z,13.63
2022-09-27T20:01:00.467Z,13.33
2022-09-27T20:03:50.491Z,13.90
2022-09-27T20:06:38.948Z,13.88
2022-09-27T20:09:27.272Z,13.87
2022-09-27T20:12:16.982Z,14.07
2022-09-27T20:15:05.872Z,13.87
2022-09-27T20:17:54.286Z,13.65
2022-09-27T20:20:43.331Z,13.83
2022-09-27T20:23:33.743Z,13.69
2022-09-27T20:26:24.499Z,13.59
2022-09-27T20:29:14.220Z,13.78
2022-09-27T20:32:26.123Z,13.61
2022-09-27T20:35:11.516Z,13.62
2022-09-27T20:37:59.788Z,13.44
2022-09-27T20:40:54.153Z,13.49
2022-09-27T20:43:42.531Z,13.40
2022-09-27T20:46:33.128Z,13.34
2022-09-27T20:49:21.645Z,13.43
2022-09-27T20:52:10.019Z,13.44
2022-09-27T20:54:58.463Z,13.03
2022-09-27T20:57:57.221Z,13.18
2022-09-27T21:00:46.110Z,12.91
2022-09-27T21:03:35.918Z,13.03
2022-09-27T21:06:24.695Z,13.17
2022-09-27T21:09:18.735Z,12.99
2022-09-27T21:12:07.357Z,13.51
2022-09-27T21:14:55.672Z,13.62
2022-09-27T21:17:44.079Z,13.60
2022-09-27T21:20:34.352Z,13.09
2022-09-27T21:23:22.663Z,12.68
2022-09-27T21:26:12.501Z,12.61
2022-09-27T21:29:02.568Z,12.31
2022-09-27T21:31:50.978Z,12.16
2022-09-27T21:34:39.384Z,12.78
2022-09-27T21:37:29.071Z,12.52
2022-09-27T21:40:18.017Z,12.46
2022-09-27T21:43:06.969Z,12.57
2022-09-27T21:45:55.999Z,12.58
2022-09-27T21:48:46.415Z,12.56
2022-09-27T21:51:38.142Z,12.67
2022-09-27T21:54:27.866Z,12.87
2022-09-27T21:57:16.285Z,12.70
2022-09-27T22:00:05.308Z,12.99
2022-09-27T22:02:58.424Z,12.99
2022-09-27T22:05:46.962Z,12.70
2022-09-27T22:08:35.683Z,12.37
2022-09-27T22:11:28.951Z,12.97
2022-09-27T22:14:19.920Z,12.99
2022-09-27T22:17:08.235Z,13.30
2022-09-27T22:19:56.580Z,13.02
2022-09-27T22:22:44.915Z,13.29
2022-09-27T22:25:33.231Z,12.72
2022-09-27T22:28:22.996Z,12.91
2022-09-27T22:31:14.688Z,13.06
2022-09-27T22:34:05.111Z,13.19
2022-09-27T22:36:53.765Z,12.98
2022-09-27T22:39:42.158Z,13.35
2022-09-27T22:42:30.504Z,13.30
2022-09-27T22:45:20.283Z,13.15
2022-09-27T22:48:08.640Z,13.03
2022-09-27T22:50:57.997Z,13.11
2022-09-27T22:53:46.294Z,13.20
2022-09-27T22:56:34.664Z,12.97
2022-09-27T22:59:23.653Z,13.35
2022-09-27T23:02:13.289Z,13.14
2022-09-27T23:05:01.567Z,13.08
2022-09-27T23:07:51.203Z,12.93
2022-09-27T23:10:40.441Z,12.94
2022-09-27T23:13:31.679Z,12.94
2022-09-27T23:16:24.580Z,12.92
2022-09-27T23:19:16.296Z,12.61
2022-09-27T23:22:04.743Z,12.73
2022-09-27T23:24:53.094Z,12.76
2022-09-27T23:27:45.340Z,13.07
2022-09-27T23:30:34.285Z,12.75
2022-09-27T23:33:23.063Z,12.76
2022-09-27T23:36:15.244Z,12.78
2022-09-27T23:39:03.608Z,12.67
2022-09-27T23:41:51.989Z,12.86
2022-09-27T23:44:40.420Z,12.39
2022-09-27T23:47:28.871Z,12.55
2022-09-27T23:50:17.228Z,11.88
2022-09-27T23:53:07.011Z,12.08
2022-09-27T23:56:02.772Z,11.71
2022-09-27T23:58:51.270Z,11.77
